Time;durP1;ratioP1;P1;durP2;ratioP2;P2;SDS_P1;SDS_P2;PMS_P1;PMS_P2;Temp;Humidity;BMP_temperature;BMP_pressure;BME280_temperature;BME280_humidity;BME280_pressure;Samples;Min_cycle;Max_cycle;Signal;HPM_P1;HPM_P2
2024/02/15 00:01:19;;;;;;;4.50;2.20;;;;;;;10.44;100.00;96769.72;5036798;28;20577;-68
2024/02/15 00:03:45;;;;;;;3.53;1.73;;;;;;;10.44;100.00;96769.72;5038642;28;20311;-68
2024/02/15 00:06:13;;;;;;;3.77;2.07;;;;;;;10.62;100.00;96775.66;5038449;28;20690;-68
2024/02/15 00:08:40;;;;;;;3.70;2.20;;;;;;;10.56;100.00;96772.84;5038456;28;20205;-69
2024/02/15 00:11:09;;;;;;;3.50;2.10;;;;;;;10.57;100.00;96777.13;5037736;28;20232;-68
2024/02/15 00:13:36;;;;;;;4.40;2.47;;;;;;;10.58;100.00;96774.34;5038969;28;20566;-68
2024/02/15 00:16:02;;;;;;;4.27;2.63;;;;;;;10.60;100.00;96768.91;5038649;28;20209;-68
2024/02/15 00:18:30;;;;;;;4.10;2.30;;;;;;;10.61;100.00;96770.56;5038115;28;20968;-67
2024/02/15 00:20:57;;;;;;;3.77;2.00;;;;;;;10.54;100.00;96769.56;5037468;28;20238;-69
2024/02/15 00:23:24;;;;;;;3.83;2.00;;;;;;;10.73;100.00;96769.22;5039602;28;20196;-68
2024/02/15 00:25:51;;;;;;;6.37;2.50;;;;;;;10.58;100.00;96768.25;5038354;28;20727;-68
2024/02/15 00:28:18;;;;;;;4.80;2.30;;;;;;;10.52;100.00;96755.72;5037396;28;20458;-69
2024/02/15 00:30:44;;;;;;;2.73;1.80;;;;;;;10.48;100.00;96759.69;5038216;28;20282;-69
2024/02/15 00:33:11;;;;;;;3.70;2.10;;;;;;;10.47;100.00;96758.84;5037535;28;20205;-70
2024/02/15 00:35:37;;;;;;;3.73;1.90;;;;;;;10.50;100.00;96763.78;5037919;28;20209;-69
2024/02/15 00:38:04;;;;;;;2.80;2.00;;;;;;;10.51;100.00;96761.97;5037640;28;20224;-70
2024/02/15 00:40:33;;;;;;;2.87;2.00;;;;;;;10.63;100.00;96763.31;5037582;28;20209;-69
2024/02/15 00:42:59;;;;;;;3.07;1.83;;;;;;;10.49;100.00;96766.59;5036927;28;20244;-68
2024/02/15 00:45:26;;;;;;;3.37;1.93;;;;;;;10.53;100.00;96767.91;5037274;28;20378;-68
2024/02/15 00:47:54;;;;;;;5.03;1.90;;;;;;;10.55;100.00;96758.88;5037390;28;20212;-67
2024/02/15 00:50:20;;;;;;;5.93;1.97;;;;;;;10.58;100.00;96761.16;5036323;28;20699;-69
2024/02/15 00:52:47;;;;;;;3.67;1.97;;;;;;;10.62;100.00;96761.66;5037699;28;20205;-68
2024/02/15 00:55:13;;;;;;;3.83;2.23;;;;;;;10.56;100.00;96754.41;5036513;28;20494;-68
2024/02/15 00:57:41;;;;;;;3.33;1.70;;;;;;;10.81;100.00;96751.59;5037249;28;20209;-69
2024/02/15 01:00:09;;;;;;;5.50;1.67;;;;;;;10.66;100.00;96752.44;5035437;28;20209;-69
2024/02/15 01:02:36;;;;;;;2.77;1.80;;;;;;;10.70;100.00;96748.47;5036977;28;20306;-68
2024/02/15 01:05:03;;;;;;;2.13;1.63;;;;;;;10.72;100.00;96746.50;5036509;28;20235;-69
2024/02/15 01:07:30;;;;;;;3.73;2.00;;;;;;;10.68;100.00;96753.91;5037289;28;20258;-69
2024/02/15 01:09:56;;;;;;;2.20;1.60;;;;;;;10.71;100.00;96760.66;5036753;28;20216;-68
2024/02/15 01:12:23;;;;;;;3.67;2.27;;;;;;;10.75;100.00;96768.06;5035682;28;20483;-70
2024/02/15 01:14:51;;;;;;;2.00;1.60;;;;;;;10.92;100.00;96758.34;5036401;28;20201;-68
2024/02/15 01:17:18;;;;;;;3.13;2.20;;;;;;;10.84;100.00;96761.00;5036698;28;20694;-68
2024/02/15 01:19:45;;;;;;;4.40;1.30;;;;;;;10.85;100.00;96763.47;5036611;28;20788;-69
2024/02/15 01:22:11;;;;;;;2.80;1.97;;;;;;;10.84;100.00;96764.44;5035219;28;20770;-68
2024/02/15 01:24:38;;;;;;;2.77;1.80;;;;;;;10.72;100.00;96771.03;5037190;28;20201;-69
2024/02/15 01:27:07;;;;;;;2.80;2.13;;;;;;;10.88;100.00;96763.13;5036556;28;20209;-69
2024/02/15 01:29:34;;;;;;;3.13;1.80;;;;;;;10.81;100.00;96761.34;5035455;28;20220;-69
2024/02/15 01:32:02;;;;;;;2.77;1.50;;;;;;;11.00;100.00;96757.34;5034530;28;20707;-69
2024/02/15 01:34:29;;;;;;;4.97;1.87;;;;;;;10.90;100.00;96758.50;5037239;28;20626;-69
2024/02/15 01:36:55;;;;;;;2.93;1.70;;;;;;;11.00;100.00;96757.34;5037529;28;20213;-68
2024/02/15 01:39:22;;;;;;;4.30;1.87;;;;;;;11.03;100.00;96762.28;5035337;28;20580;-69
2024/02/15 01:41:50;;;;;;;3.77;2.27;;;;;;;10.96;100.00;96755.22;5035119;28;20225;-68
2024/02/15 01:44:17;;;;;;;4.33;1.77;;;;;;;10.94;100.00;96752.72;5036570;28;20229;-69
2024/02/15 01:46:47;;;;;;;3.70;2.00;;;;;;;10.93;100.00;96758.16;5036747;28;20286;-69
2024/02/15 01:49:16;;;;;;;7.57;2.47;;;;;;;11.08;100.00;96748.59;5035683;28;20205;-68
2024/02/15 01:51:43;;;;;;;3.10;1.80;;;;;;;11.00;100.00;96746.78;5035166;28;20224;-70
2024/02/15 01:54:11;;;;;;;2.90;1.70;;;;;;;10.93;100.00;96754.72;5036475;28;20205;-69
2024/02/15 01:56:38;;;;;;;4.10;1.60;;;;;;;10.85;100.00;96752.09;5036095;28;20212;-69
2024/02/15 01:59:06;;;;;;;3.73;1.90;;;;;;;10.91;100.00;96746.16;5036090;28;20228;-69
2024/02/15 02:01:33;;;;;;;2.47;1.87;;;;;;;10.93;100.00;96744.19;5035605;28;20231;-69
2024/02/15 02:04:00;;;;;;;4.00;2.20;;;;;;;10.83;100.00;96740.88;5036514;28;20752;-68
2024/02/15 02:06:29;;;;;;;3.07;1.70;;;;;;;10.94;100.00;96742.19;5036265;28;20705;-69
2024/02/15 02:08:56;;;;;;;3.13;1.97;;;;;;;10.75;100.00;96735.63;5036810;28;20194;-69
2024/02/15 02:11:22;;;;;;;3.57;1.90;;;;;;;10.75;100.00;96746.97;5035117;28;20553;-69
2024/02/15 02:13:49;;;;;;;5.07;1.80;;;;;;;10.71;100.00;96732.50;5036349;28;20684;-68
2024/02/15 02:16:28;;;;;;;2.70;2.10;;;;;;;11.02;100.00;96729.00;5036487;28;20292;-69
2024/02/15 02:18:56;;;;;;;3.30;1.90;;;;;;;10.73;100.00;96727.91;5036692;28;20366;-70
2024/02/15 02:21:24;;;;;;;3.93;2.00;;;;;;;10.59;100.00;96732.97;5035901;28;20224;-69
2024/02/15 02:23:54;;;;;;;3.80;2.03;;;;;;;10.76;100.00;96730.19;5036622;28;20288;-69
2024/02/15 02:26:22;;;;;;;5.13;1.90;;;;;;;10.69;100.00;96725.75;5036264;28;20572;-69
2024/02/15 02:28:49;;;;;;;4.30;1.90;;;;;;;10.49;100.00;96721.81;5036027;28;20366;-67
2024/02/15 02:31:15;;;;;;;3.77;2.37;;;;;;;10.33;100.00;96735.81;5035208;28;20762;-70
2024/02/15 02:33:42;;;;;;;3.70;2.03;;;;;;;10.32;100.00;96733.31;5036077;28;20378;-67
2024/02/15 02:36:11;;;;;;;3.33;1.87;;;;;;;10.18;100.00;96728.69;5035881;28;20223;-69
2024/02/15 02:38:38;;;;;;;3.60;1.83;;;;;;;10.08;100.00;96729.81;5036545;28;20229;-69
2024/02/15 02:41:05;;;;;;;4.47;2.27;;;;;;;10.09;100.00;96734.91;5035237;28;20233;-69
2024/02/15 02:43:34;;;;;;;2.57;1.67;;;;;;;10.09;100.00;96728.84;5035976;28;20205;-67
2024/02/15 02:46:01;;;;;;;2.93;1.70;;;;;;;9.98;100.00;96732.59;5035278;28;20201;-68
2024/02/15 02:48:27;;;;;;;3.80;2.33;;;;;;;9.90;100.00;96732.56;5037040;28;20330;-69
2024/02/15 02:50:54;;;;;;;6.27;2.10;;;;;;;10.02;100.00;96736.56;5034227;28;20229;-68
2024/02/15 02:53:20;;;;;;;3.43;1.87;;;;;;;10.06;100.00;96743.16;5034880;28;20215;-67
2024/02/15 02:55:47;;;;;;;2.33;1.70;;;;;;;10.09;100.00;96732.28;5035968;28;20207;-70
2024/02/15 02:58:13;;;;;;;5.80;1.80;;;;;;;10.07;100.00;96736.06;5035058;28;20614;-69
2024/02/15 03:00:42;;;;;;;2.77;1.70;;;;;;;10.32;100.00;96737.75;5034792;28;20205;-68
2024/02/15 03:03:09;;;;;;;3.67;1.93;;;;;;;10.20;100.00;96739.06;5035626;28;20205;-69
2024/02/15 03:05:35;;;;;;;7.47;2.27;;;;;;;10.20;100.00;96734.63;5035399;28;20205;-70
2024/02/15 03:08:02;;;;;;;3.27;1.73;;;;;;;10.19;100.00;96737.41;5033922;28;20197;-68
2024/02/15 03:10:29;;;;;;;3.47;2.03;;;;;;;10.21;100.00;96736.28;5035093;28;20197;-67
2024/02/15 03:12:55;;;;;;;3.17;1.97;;;;;;;10.21;100.00;96731.00;5034390;28;20696;-69
2024/02/15 03:15:22;;;;;;;3.30;2.10;;;;;;;10.17;100.00;96736.75;5035440;28;20201;-68
2024/02/15 03:17:51;;;;;;;3.53;1.40;;;;;;;10.31;100.00;96725.56;5035296;28;20212;-69
2024/02/15 03:20:21;;;;;;;4.37;1.80;;;;;;;10.18;100.00;96731.31;5035113;28;20310;-69
2024/02/15 03:22:52;;;;;;;3.03;1.70;;;;;;;10.34;100.00;96729.53;5035308;28;20201;-67
2024/02/15 03:25:18;;;;;;;4.53;1.80;;;;;;;10.21;100.00;96724.91;5034952;28;20258;-68
2024/02/15 03:27:45;;;;;;;4.93;2.40;;;;;;;10.22;100.00;96726.56;5035268;28;20637;-69
2024/02/15 03:30:12;;;;;;;3.60;2.50;;;;;;;10.17;100.00;96724.41;5034275;28;20197;-70
2024/02/15 03:32:40;;;;;;;2.80;2.00;;;;;;;10.07;100.00;96723.75;5035457;28;20220;-69
2024/02/15 03:35:08;;;;;;;4.60;1.97;;;;;;;10.23;100.00;96723.75;5034591;28;20448;-69
2024/02/15 03:37:39;;;;;;;4.70;2.50;;;;;;;10.13;100.00;96725.72;5035924;28;20380;-69
2024/02/15 03:40:07;;;;;;;3.17;1.80;;;;;;;10.27;100.00;96719.78;5033362;28;20354;-68
2024/02/15 03:42:36;;;;;;;4.03;1.83;;;;;;;10.18;100.00;96726.03;5034935;28;20221;-69
2024/02/15 03:45:03;;;;;;;4.00;1.77;;;;;;;10.17;100.00;96721.78;5032726;28;20205;-69
2024/02/15 03:47:29;;;;;;;11.30;2.20;;;;;;;10.23;100.00;96726.38;5035465;28;20201;-69
2024/02/15 03:49:56;;;;;;;3.57;1.97;;;;;;;10.21;100.00;96728.38;5034161;28;20205;-70
2024/02/15 03:52:24;;;;;;;5.60;1.77;;;;;;;10.30;100.00;96723.91;5034555;28;20343;-67
2024/02/15 03:54:52;;;;;;;3.60;2.20;;;;;;;10.07;100.00;96729.00;5034598;28;20201;-68
2024/02/15 03:57:20;;;;;;;3.67;2.13;;;;;;;10.11;100.00;96732.97;5033789;28;20201;-69
2024/02/15 03:59:50;;;;;;;5.47;2.30;;;;;;;10.18;100.00;96731.31;5034631;28;20217;-69
2024/02/15 04:02:17;;;;;;;5.17;1.90;;;;;;;10.17;100.00;96718.31;5033288;28;20237;-69
2024/02/15 04:04:46;;;;;;;3.47;1.93;;;;;;;10.09;100.00;96721.75;5033957;28;20212;-69
2024/02/15 04:07:13;;;;;;;3.33;2.03;;;;;;;10.07;100.00;96721.09;5034114;28;20676;-70
2024/02/15 04:09:41;;;;;;;4.00;1.77;;;;;;;10.20;100.00;96721.44;5034644;28;20201;-68
2024/02/15 04:12:07;;;;;;;4.50;2.10;;;;;;;10.01;100.00;96720.94;5034136;28;20228;-70
2024/02/15 04:14:34;;;;;;;5.50;2.27;;;;;;;9.88;100.00;96723.19;5034420;28;20204;-69
2024/02/15 04:17:01;;;;;;;5.07;2.07;;;;;;;9.83;100.00;96721.00;5035369;28;20619;-69
2024/02/15 04:19:28;;;;;;;3.33;2.03;;;;;;;9.76;100.00;96721.81;5035033;28;20231;-68
2024/02/15 04:21:55;;;;;;;5.93;2.13;;;;;;;9.76;100.00;96725.28;5037481;28;20782;-67
2024/02/15 04:24:21;;;;;;;3.73;2.27;;;;;;;9.71;100.00;96719.69;5038275;28;20205;-69
2024/02/15 04:26:49;;;;;;;4.40;2.07;;;;;;;9.82;100.00;96722.00;5038555;28;20207;-67
2024/02/15 04:29:17;;;;;;;6.53;2.23;;;;;;;9.66;100.00;96713.25;5036782;28;20198;-67
2024/02/15 04:31:44;;;;;;;3.70;2.23;;;;;;;9.59;100.00;96716.69;5037292;28;20213;-67
2024/02/15 04:34:11;;;;;;;3.73;2.30;;;;;;;9.53;100.00;96715.47;5038145;28;20201;-67
2024/02/15 04:36:37;;;;;;;5.37;2.20;;;;;;;9.50;100.00;96712.38;5038221;28;20204;-69
2024/02/15 04:39:04;;;;;;;12.57;4.00;;;;;;;9.49;100.00;96713.34;5037721;28;20208;-69
2024/02/15 04:41:30;;;;;;;22.87;7.17;;;;;;;9.38;100.00;96716.25;5037067;28;20237;-69
2024/02/15 04:43:58;;;;;;;17.40;5.60;;;;;;;9.45;100.00;96704.94;5038572;28;20213;-67
2024/02/15 04:46:25;;;;;;;33.60;9.70;;;;;;;9.15;100.00;96712.53;5037827;28;20209;-69
2024/02/15 04:48:52;;;;;;;34.07;11.33;;;;;;;9.13;100.00;96715.31;5037933;28;20502;-69
2024/02/15 04:51:19;;;;;;;38.87;11.67;;;;;;;9.07;100.00;96709.84;5036488;28;21048;-69
2024/02/15 04:53:46;;;;;;;28.33;9.00;;;;;;;9.10;100.00;96706.94;5038735;28;20228;-69
2024/02/15 04:56:14;;;;;;;28.00;9.57;;;;;;;9.03;100.00;96708.53;5037557;28;20207;-69
2024/02/15 04:58:45;;;;;;;23.20;8.30;;;;;;;9.03;100.00;96708.53;5037591;28;20201;-68
2024/02/15 05:01:15;;;;;;;17.77;4.97;;;;;;;9.10;100.00;96712.19;5036637;28;20271;-69
2024/02/15 05:03:41;;;;;;;20.00;5.73;;;;;;;8.82;100.00;96715.97;5037379;28;20251;-69
2024/02/15 05:06:09;;;;;;;60.43;15.10;;;;;;;8.88;100.00;96717.16;5036974;28;20734;-69
2024/02/15 05:08:41;;;;;;;51.50;13.13;;;;;;;8.87;100.00;96708.44;5038380;28;20208;-70
2024/02/15 05:11:13;;;;;;;59.87;11.77;;;;;;;8.72;100.00;96715.25;5036933;28;20222;-67
2024/02/15 05:13:39;;;;;;;103.10;14.93;;;;;;;8.72;100.00;96719.69;5037280;28;20201;-70
2024/02/15 05:16:06;;;;;;;52.30;10.60;;;;;;;8.78;100.00;96724.31;5037027;28;20201;-70
2024/02/15 05:18:35;;;;;;;27.73;9.40;;;;;;;8.53;100.00;96725.94;5038419;28;20675;-68
2024/02/15 05:21:03;;;;;;;14.13;4.97;;;;;;;8.45;100.00;96726.84;5036307;28;20251;-70
2024/02/15 05:23:29;;;;;;;7.40;3.33;;;;;;;8.24;100.00;96732.41;5036946;28;20244;-68
2024/02/15 05:25:58;;;;;;;8.33;2.93;;;;;;;8.25;100.00;96727.97;5037892;28;20456;-69
2024/02/15 05:28:26;;;;;;;9.40;3.90;;;;;;;8.01;100.00;96730.38;5037463;28;20229;-69
2024/02/15 05:31:10;;;;;;;10.63;4.87;;;;;;;8.37;100.00;96727.59;5035922;28;20691;-69
2024/02/15 05:33:40;;;;;;;6.90;3.43;;;;;;;8.18;100.00;96714.63;5037008;28;20490;-68
2024/02/15 05:36:08;;;;;;;7.73;3.60;;;;;;;8.02;100.00;96724.97;5036318;28;20666;-67
2024/02/15 05:38:35;;;;;;;5.67;3.13;;;;;;;8.03;100.00;96718.75;5036258;28;20452;-69
2024/02/15 05:41:02;;;;;;;7.43;3.40;;;;;;;7.93;100.00;96725.88;5036042;28;20233;-68
2024/02/15 05:43:30;;;;;;;5.60;2.83;;;;;;;7.89;100.00;96721.91;5036482;28;20289;-70
2024/02/15 05:45:59;;;;;;;6.83;3.50;;;;;;;7.83;100.00;96728.69;5037160;28;20225;-68
2024/02/15 05:48:25;;;;;;;8.50;3.10;;;;;;;7.74;100.00;96727.81;5037030;28;20292;-69
2024/02/15 05:50:54;;;;;;;8.20;3.67;;;;;;;7.88;100.00;96722.84;5036803;28;20236;-68
2024/02/15 05:53:20;;;;;;;6.37;3.10;;;;;;;7.69;100.00;96722.16;5036710;28;20255;-70
2024/02/15 05:55:49;;;;;;;7.83;3.27;;;;;;;7.70;100.00;96713.34;5037625;28;20201;-68
2024/02/15 05:58:16;;;;;;;5.90;2.93;;;;;;;7.68;100.00;96711.84;5037215;28;20205;-68
2024/02/15 06:00:44;;;;;;;8.50;3.43;;;;;;;7.40;100.00;96721.50;5035432;28;20714;-68
2024/02/15 06:03:12;;;;;;;6.73;3.07;;;;;;;7.25;100.00;96727.38;5035498;28;20202;-69
2024/02/15 06:05:39;;;;;;;5.37;2.87;;;;;;;7.10;100.00;96728.00;5036327;28;20201;-68
2024/02/15 06:08:07;;;;;;;4.23;2.53;;;;;;;7.47;100.00;96725.19;5036026;28;20205;-69
2024/02/15 06:10:34;;;;;;;5.33;2.70;;;;;;;7.35;100.00;96734.22;5036241;28;20213;-71
2024/02/15 06:13:01;;;;;;;6.40;3.03;;;;;;;7.16;100.00;96733.47;5036447;28;20212;-69
2024/02/15 06:15:27;;;;;;;5.10;2.37;;;;;;;7.16;100.00;96732.66;5038239;28;20306;-69
2024/02/15 06:17:54;;;;;;;4.00;2.63;;;;;;;7.05;100.00;96722.34;5037988;28;20205;-69
2024/02/15 06:20:21;;;;;;;3.73;2.10;;;;;;;7.04;100.00;96731.19;5037359;28;20233;-69
2024/02/15 06:22:47;;;;;;;3.37;2.10;;;;;;;6.98;100.00;96723.91;5037892;28;20197;-69
2024/02/15 06:25:20;;;;;;;7.70;2.13;;;;;;;6.99;100.00;96730.81;5037637;28;20209;-68
2024/02/15 06:27:48;;;;;;;6.93;2.50;;;;;;;6.91;100.00;96733.28;5036338;28;20668;-68
2024/02/15 06:41:09;;;;;;;3.17;2.03;;;;;;;6.98;100.00;96744.88;5035127;28;20321;-68
2024/02/15 06:43:36;;;;;;;4.13;2.20;;;;;;;6.78;100.00;96745.88;5036232;28;20200;-68
2024/02/15 06:46:03;;;;;;;6.33;2.77;;;;;;;6.83;100.00;96743.66;5035566;28;20201;-68
2024/02/15 06:48:31;;;;;;;4.40;2.33;;;;;;;6.82;100.00;96739.38;5035783;28;20671;-68
2024/02/15 06:50:57;;;;;;;4.50;2.37;;;;;;;6.78;100.00;96736.25;5034995;28;20282;-68
2024/02/15 06:53:24;;;;;;;3.53;2.20;;;;;;;6.82;100.00;96735.00;5036120;28;20320;-68
2024/02/15 06:55:51;;;;;;;3.03;1.73;;;;;;;6.83;100.00;96741.88;5036015;28;20740;-68
2024/02/15 06:58:20;;;;;;;3.73;2.40;;;;;;;7.04;100.00;96734.66;5035865;28;20213;-67
2024/02/15 07:00:46;;;;;;;3.70;2.17;;;;;;;6.96;100.00;96744.19;5034573;28;20231;-68
2024/02/15 07:03:16;;;;;;;5.17;2.40;;;;;;;6.82;100.00;96744.63;5036092;28;20212;-68
2024/02/15 07:05:43;;;;;;;3.53;2.43;;;;;;;6.83;100.00;96746.28;5036414;28;20237;-68
2024/02/15 07:08:10;;;;;;;2.90;1.83;;;;;;;6.89;100.00;96737.88;5035348;28;20255;-68
2024/02/15 07:10:38;;;;;;;3.57;1.87;;;;;;;7.05;100.00;96738.06;5034814;28;20298;-68
2024/02/15 07:13:05;;;;;;;3.80;2.43;;;;;;;7.05;100.00;96743.31;5035958;28;20881;-68
2024/02/15 07:15:37;;;;;;;3.07;2.20;;;;;;;7.19;100.00;96742.84;5036235;28;20650;-68
2024/02/15 07:18:06;;;;;;;5.40;2.87;;;;;;;7.04;100.00;96736.41;5035308;28;20212;-68
2024/02/15 07:20:32;;;;;;;5.20;2.87;;;;;;;7.09;100.00;96736.81;5035542;28;20326;-68
2024/02/15 07:22:59;;;;;;;4.37;2.50;;;;;;;7.00;100.00;96735.91;5035619;28;20197;-69
2024/02/15 07:25:25;;;;;;;4.80;2.60;;;;;;;6.84;100.00;96735.66;5034853;28;20254;-67
2024/02/15 07:27:52;;;;;;;8.07;2.10;;;;;;;6.81;100.00;96735.97;5036105;28;20233;-68
2024/02/15 07:30:19;;;;;;;3.57;2.40;;;;;;;6.94;100.00;96733.03;5033584;28;20233;-69
2024/02/15 07:32:47;;;;;;;4.13;2.63;;;;;;;6.93;100.00;96732.19;5035141;28;20217;-67
2024/02/15 07:35:17;;;;;;;4.43;2.63;;;;;;;6.95;100.00;96738.13;5034679;28;21005;-68
2024/02/15 07:37:52;;;;;;;3.90;2.47;;;;;;;7.51;100.00;96738.81;5033552;28;20273;-68
2024/02/15 07:40:19;;;;;;;3.20;2.07;;;;;;;7.44;100.00;96738.59;5033122;28;20359;-68
2024/02/15 07:42:46;;;;;;;4.60;2.70;;;;;;;7.43;100.00;96744.81;5033882;28;20216;-69
2024/02/15 07:45:13;;;;;;;6.43;3.20;;;;;;;7.52;100.00;96745.72;5034644;28;20209;-68
2024/02/15 07:47:39;;;;;;;7.17;3.10;;;;;;;7.73;100.00;96743.69;5034111;28;20664;-69
2024/02/15 07:50:09;;;;;;;7.30;2.90;;;;;;;7.94;100.00;96735.41;5033941;28;20689;-68
2024/02/15 07:52:36;;;;;;;5.70;2.90;;;;;;;7.82;100.00;96738.38;5034535;28;21093;-68
2024/02/15 07:55:08;;;;;;;5.03;2.90;;;;;;;7.91;100.00;96735.66;5037467;28;20835;-68
2024/02/15 07:57:35;;;;;;;7.33;3.40;;;;;;;8.17;100.00;96733.16;5038853;28;20676;-69
2024/02/15 08:00:01;;;;;;;6.17;3.10;;;;;;;8.26;100.00;96727.00;5039039;28;21252;-69
2024/02/15 08:02:28;;;;;;;4.90;2.80;;;;;;;8.45;100.00;96721.59;5037736;28;20220;-68
2024/02/15 08:04:54;;;;;;;5.67;2.67;;;;;;;8.53;100.00;96720.69;5039350;28;20561;-69
2024/02/15 08:07:22;;;;;;;4.73;2.33;;;;;;;8.75;100.00;96720.19;5038057;28;20256;-69
2024/02/15 08:09:50;;;;;;;4.93;2.80;;;;;;;8.66;100.00;96720.28;5039227;28;20202;-69
2024/02/15 08:12:18;;;;;;;5.87;2.80;;;;;;;8.76;100.00;96708.69;5037796;28;20232;-68
2024/02/15 08:14:45;;;;;;;5.30;2.70;;;;;;;8.92;100.00;96714.03;5038979;28;20686;-69
2024/02/15 08:17:12;;;;;;;5.70;2.37;;;;;;;9.27;100.00;96711.28;5039142;28;20197;-69
2024/02/15 08:19:41;;;;;;;3.57;1.80;;;;;;;9.44;100.00;96707.72;5037948;28;20197;-69
2024/02/15 08:22:09;;;;;;;3.90;2.10;;;;;;;9.49;100.00;96706.25;5038460;28;20524;-68
2024/02/15 08:24:37;;;;;;;3.73;2.10;;;;;;;9.79;100.00;96703.09;5040384;28;20201;-69
2024/02/15 08:27:04;;;;;;;5.60;2.23;;;;;;;9.78;100.00;96699.63;5039001;28;20208;-69
2024/02/15 08:29:31;;;;;;;4.43;2.20;;;;;;;9.80;100.00;96695.03;5038469;28;20209;-69
2024/02/15 08:31:58;;;;;;;5.03;2.30;;;;;;;9.87;100.00;96696.00;5038263;28;20217;-68
2024/02/15 08:34:24;;;;;;;4.63;2.67;;;;;;;10.27;100.00;96697.91;5038612;28;20234;-69
2024/02/15 08:36:51;;;;;;;3.90;2.10;;;;;;;10.39;100.00;96697.44;5038659;28;20711;-68
2024/02/15 08:39:18;;;;;;;7.87;2.40;;;;;;;10.44;100.00;96698.56;5038152;28;20572;-68
2024/02/15 08:41:46;;;;;;;2.80;1.90;;;;;;;10.72;100.00;96693.78;5036842;28;20224;-68
2024/02/15 08:44:15;;;;;;;3.47;1.83;;;;;;;10.82;100.00;96692.63;5037565;28;20846;-69
2024/02/15 08:46:41;;;;;;;3.80;2.20;;;;;;;10.90;100.00;96689.97;5037242;28;20212;-68
2024/02/15 08:49:08;;;;;;;6.53;2.20;;;;;;;10.92;100.00;96684.50;5037498;28;20204;-68
2024/02/15 08:51:34;;;;;;;3.23;2.10;;;;;;;11.18;100.00;96680.66;5036251;28;20229;-68
2024/02/15 08:54:01;;;;;;;4.57;2.23;;;;;;;10.86;100.00;96679.91;5036870;28;20210;-69
2024/02/15 08:56:27;;;;;;;3.67;1.97;;;;;;;10.98;100.00;96680.22;5037832;28;20224;-68
2024/02/15 08:58:57;;;;;;;3.27;1.83;;;;;;;11.40;100.00;96677.28;5037159;28;20331;-68
2024/02/15 09:01:24;;;;;;;2.97;2.03;;;;;;;11.29;100.00;96677.63;5036455;28;20637;-68
2024/02/15 09:03:50;;;;;;;3.83;2.23;;;;;;;11.33;100.00;96677.16;5036738;28;20682;-68
2024/02/15 09:06:17;;;;;;;3.97;2.10;;;;;;;11.43;100.00;96675.13;5036845;28;20201;-68
2024/02/15 09:08:43;;;;;;;4.63;2.20;;;;;;;11.53;100.00;96670.47;5037165;28;20218;-69
2024/02/15 09:11:12;;;;;;;5.57;2.90;;;;;;;11.75;100.00;96667.09;5036596;28;20213;-69
2024/02/15 09:13:38;;;;;;;3.57;2.23;;;;;;;11.88;100.00;96651.50;5036518;28;20205;-69
2024/02/15 09:16:07;;;;;;;2.90;2.10;;;;;;;11.96;100.00;96672.56;5037342;28;20204;-69
2024/02/15 09:18:34;;;;;;;8.20;2.40;;;;;;;12.25;100.00;96662.94;5036355;28;20483;-68
2024/02/15 09:21:00;;;;;;;5.53;2.10;;;;;;;11.93;100.00;96657.06;5037072;28;20225;-68
2024/02/15 09:23:27;;;;;;;6.17;2.73;;;;;;;11.73;100.00;96651.41;5037149;28;20318;-68
2024/02/15 09:25:53;;;;;;;4.40;2.10;;;;;;;11.67;100.00;96648.63;5037188;28;20214;-68
2024/02/15 09:28:21;;;;;;;4.47;2.27;;;;;;;12.10;100.00;96648.03;5037554;28;20212;-67
2024/02/15 09:30:51;;;;;;;2.83;1.53;;;;;;;12.33;100.00;96634.63;5037643;28;20676;-68
2024/02/15 09:33:19;;;;;;;3.23;1.57;;;;;;;12.42;100.00;96633.56;5036602;28;20214;-68
2024/02/15 09:35:46;;;;;;;4.07;2.10;;;;;;;12.20;100.00;96631.75;5036989;28;20197;-68
2024/02/15 09:38:13;;;;;;;4.10;2.47;;;;;;;12.70;100.00;96624.03;5037763;28;20865;-68
2024/02/15 09:40:40;;;;;;;7.53;1.80;;;;;;;12.85;98.86;96623.06;5036341;28;20201;-68
2024/02/15 09:43:07;;;;;;;3.53;1.50;;;;;;;13.05;97.15;96615.44;5036685;28;20588;-68
2024/02/15 09:45:35;;;;;;;3.57;1.83;;;;;;;13.12;96.26;96611.03;5036428;28;20212;-68
2024/02/15 09:48:08;;;;;;;3.93;1.73;;;;;;;13.36;96.91;96602.81;5036977;28;20696;-67
2024/02/15 09:50:39;;;;;;;5.27;2.00;;;;;;;13.29;98.77;96605.38;5035815;28;20279;-68
2024/02/15 09:53:08;;;;;;;3.93;2.17;;;;;;;13.22;100.00;96601.00;5036504;28;21274;-68
2024/02/15 09:55:35;;;;;;;3.03;1.73;;;;;;;12.91;100.00;96608.31;5037013;28;20296;-68
2024/02/15 09:58:04;;;;;;;3.13;1.77;;;;;;;13.30;97.54;96599.09;5037109;28;20201;-68
2024/02/15 10:00:31;;;;;;;5.20;1.60;;;;;;;13.28;98.62;96600.28;5036000;28;20695;-67
2024/02/15 10:03:01;;;;;;;4.67;1.90;;;;;;;13.49;98.07;96593.19;5037115;28;20231;-68
2024/02/15 10:05:27;;;;;;;3.40;1.90;;;;;;;13.57;95.62;96590.44;5037075;28;20205;-68
2024/02/15 10:07:55;;;;;;;2.93;1.50;;;;;;;13.88;95.08;96588.34;5036712;28;20210;-68
2024/02/15 10:10:26;;;;;;;3.33;1.90;;;;;;;13.91;94.87;96591.41;5035323;28;20220;-68
2024/02/15 10:12:54;;;;;;;1.60;1.30;;;;;;;13.80;96.20;96602.50;5036709;28;20194;-68
2024/02/15 10:15:35;;;;;;;2.40;1.60;;;;;;;14.15;95.82;96599.03;5036005;28;20260;-68
2024/02/15 10:18:03;;;;;;;3.63;1.77;;;;;;;13.93;98.00;96591.25;5036328;28;20201;-68
2024/02/15 10:20:30;;;;;;;4.70;2.33;;;;;;;13.88;95.54;96596.28;5035484;28;20216;-69
2024/02/15 10:23:10;;;;;;;2.57;1.63;;;;;;;14.05;98.63;96591.38;5035156;28;20318;-69
2024/02/15 10:25:38;;;;;;;2.00;1.30;;;;;;;14.10;97.15;96589.00;5035881;28;20213;-68
2024/02/15 10:28:06;;;;;;;3.00;1.80;;;;;;;14.29;96.38;96590.97;5036144;28;20201;-69
2024/02/15 10:30:34;;;;;;;4.33;2.03;;;;;;;14.48;96.86;96586.88;5034479;28;20211;-68
2024/02/15 10:33:01;;;;;;;5.07;1.40;;;;;;;14.33;96.73;96586.13;5035976;28;20559;-68
2024/02/15 10:35:28;;;;;;;3.73;1.50;;;;;;;14.69;96.39;96585.00;5035319;28;20258;-69
2024/02/15 10:38:08;;;;;;;3.23;1.43;;;;;;;14.92;96.97;96586.38;5035744;28;20561;-69
2024/02/15 10:40:35;;;;;;;3.57;1.60;;;;;;;14.88;97.86;96566.53;5034409;28;20204;-69
2024/02/15 10:43:04;;;;;;;2.58;1.50;;;;;;;15.01;95.66;96568.47;5035381;28;20983;-69
2024/02/15 10:45:31;;;;;;;3.10;1.10;;;;;;;15.06;95.83;96560.69;5035021;28;20216;-68
2024/02/15 10:47:58;;;;;;;2.22;1.27;;;;;;;14.99;94.36;96560.66;5034852;28;20555;-68
2024/02/15 10:50:24;;;;;;;4.28;1.63;;;;;;;14.82;95.20;96556.69;5034218;28;20232;-68
2024/02/15 10:52:56;;;;;;;1.73;1.00;;;;;;;15.08;96.15;96559.50;5035587;28;20205;-68
2024/02/15 10:55:35;;;;;;;1.70;0.90;;;;;;;15.03;98.46;96553.97;5035842;28;20201;-68
2024/02/15 10:58:04;;;;;;;2.75;1.48;;;;;;;14.79;99.37;96543.84;5035018;28;20208;-68
2024/02/15 11:00:33;;;;;;;3.50;1.42;;;;;;;14.83;100.00;96547.75;5035671;28;20672;-69
2024/02/15 11:03:04;;;;;;;1.30;0.90;;;;;;;14.71;100.00;96541.34;5035494;28;20224;-69
2024/02/15 11:05:34;;;;;;;2.45;1.08;;;;;;;14.99;100.00;96544.75;5035726;28;20682;-69
2024/02/15 11:08:01;;;;;;;2.05;1.00;;;;;;;14.91;100.00;96542.25;5035460;28;20198;-68
2024/02/15 11:10:29;;;;;;;3.47;1.05;;;;;;;14.98;100.00;96532.53;5034758;28;20667;-68
2024/02/15 11:12:58;;;;;;;1.25;0.63;;;;;;;15.25;99.14;96534.31;5035385;28;20571;-68
2024/02/15 11:15:51;;;;;;;2.45;1.00;;;;;;;15.91;92.48;96524.47;5036369;28;21080;-69
2024/02/15 11:18:44;;;;;;;7.88;1.05;;;;;;;16.07;92.38;96520.59;5034669;28;20209;-68
2024/02/15 11:21:11;;;;;;;2.58;1.55;;;;;;;15.89;90.72;96515.84;5035185;28;20227;-67
2024/02/15 11:23:37;;;;;;;1.85;0.70;;;;;;;15.85;92.50;96514.63;5035516;28;20201;-67
2024/02/15 11:26:09;;;;;;;0.90;0.75;;;;;;;16.21;90.43;96508.94;5035448;28;20212;-68
2024/02/15 11:28:39;;;;;;;3.13;0.82;;;;;;;16.09;94.13;96508.72;5034598;28;20205;-68
2024/02/15 11:31:12;;;;;;;1.70;0.90;;;;;;;16.20;93.73;96513.41;5034631;28;20225;-68
2024/02/15 11:33:39;;;;;;;2.03;0.73;;;;;;;15.70;97.45;96502.56;5035689;28;20220;-69
2024/02/15 11:36:07;;;;;;;0.65;0.50;;;;;;;15.98;95.09;96506.66;5035710;28;20236;-70
2024/02/15 11:38:34;;;;;;;1.70;0.90;;;;;;;15.95;97.02;96490.34;5035568;28;20205;-69
2024/02/15 11:41:02;;;;;;;1.15;0.63;;;;;;;15.64;97.66;96489.25;5034213;28;20746;-70
2024/02/15 11:43:54;;;;;;;0.50;0.50;;;;;;;15.84;98.68;96479.50;5035558;28;20212;-70